sensor_id;sensor_type;location;lat;lon;timestamp;temperature;humidity
66576;SHT31;53428;47.686;16.584;2023-03-14T00:02:36;12.56;61.66
66576;SHT31;53428;47.686;16.584;2023-03-14T00:07:37;12.60;61.78
66576;SHT31;53428;47.686;16.584;2023-03-14T00:12:36;12.22;62.96
66576;SHT31;53428;47.686;16.584;2023-03-14T00:17:36;11.87;64.04
66576;SHT31;53428;47.686;16.584;2023-03-14T00:22:35;11.85;64.05
66576;SHT31;53428;47.686;16.584;2023-03-14T00:27:35;11.95;63.87
66576;SHT31;53428;47.686;16.584;2023-03-14T00:32:36;11.75;64.44
66576;SHT31;53428;47.686;16.584;2023-03-14T00:37:35;11.58;64.84
66576;SHT31;53428;47.686;16.584;2023-03-14T00:42:34;11.50;65.14
66576;SHT31;53428;47.686;16.584;2023-03-14T00:47:34;11.43;65.26
66576;SHT31;53428;47.686;16.584;2023-03-14T00:52:33;11.36;65.49
66576;SHT31;53428;47.686;16.584;2023-03-14T00:57:33;11.39;65.41
66576;SHT31;53428;47.686;16.584;2023-03-14T01:02:32;11.20;65.90
66576;SHT31;53428;47.686;16.584;2023-03-14T01:07:31;11.37;65.44
66576;SHT31;53428;47.686;16.584;2023-03-14T01:12:31;11.20;65.79
66576;SHT31;53428;47.686;16.584;2023-03-14T01:17:30;10.92;66.58
66576;SHT31;53428;47.686;16.584;2023-03-14T01:22:30;10.89;66.67
66576;SHT31;53428;47.686;16.584;2023-03-14T01:27:29;10.57;67.75
66576;SHT31;53428;47.686;16.584;2023-03-14T01:32:28;10.75;67.47
66576;SHT31;53428;47.686;16.584;2023-03-14T01:37:27;10.58;68.21
66576;SHT31;53428;47.686;16.584;2023-03-14T01:42:27;10.20;69.23
66576;SHT31;53428;47.686;16.584;2023-03-14T01:47:26;10.25;69.51
66576;SHT31;53428;47.686;16.584;2023-03-14T01:52:32;10.02;70.21
66576;SHT31;53428;47.686;16.584;2023-03-14T01:57:38;10.02;69.99
66576;SHT31;53428;47.686;16.584;2023-03-14T02:02:46;9.93;70.40
66576;SHT31;53428;47.686;16.584;2023-03-14T02:07:49;10.04;70.53
66576;SHT31;53428;47.686;16.584;2023-03-14T02:12:50;10.07;70.35
66576;SHT31;53428;47.686;16.584;2023-03-14T02:17:51;10.09;70.14
66576;SHT31;53428;47.686;16.584;2023-03-14T02:22:51;10.13;69.90
66576;SHT31;53428;47.686;16.584;2023-03-14T02:27:51;10.45;68.91
66576;SHT31;53428;47.686;16.584;2023-03-14T02:33:13;10.61;68.39
66576;SHT31;53428;47.686;16.584;2023-03-14T02:38:24;10.33;69.46
66576;SHT31;53428;47.686;16.584;2023-03-14T02:43:26;10.67;68.17
66576;SHT31;53428;47.686;16.584;2023-03-14T02:48:28;10.61;68.13
66576;SHT31;53428;47.686;16.584;2023-03-14T02:53:34;10.76;67.96
66576;SHT31;53428;47.686;16.584;2023-03-14T02:58:34;11.43;65.49
66576;SHT31;53428;47.686;16.584;2023-03-14T03:03:34;11.31;65.82
66576;SHT31;53428;47.686;16.584;2023-03-14T03:08:33;11.63;65.21
66576;SHT31;53428;47.686;16.584;2023-03-14T03:13:33;11.63;64.91
66576;SHT31;53428;47.686;16.584;2023-03-14T03:18:33;11.51;65.04
66576;SHT31;53428;47.686;16.584;2023-03-14T03:23:32;11.12;65.69
66576;SHT31;53428;47.686;16.584;2023-03-14T03:28:31;11.02;66.40
66576;SHT31;53428;47.686;16.584;2023-03-14T03:33:31;11.29;65.68
66576;SHT31;53428;47.686;16.584;2023-03-14T03:38:30;11.03;66.28
66576;SHT31;53428;47.686;16.584;2023-03-14T03:43:29;12.76;61.04
66576;SHT31;53428;47.686;16.584;2023-03-14T03:48:29;13.31;59.05
66576;SHT31;53428;47.686;16.584;2023-03-14T03:53:28;12.95;59.84
66576;SHT31;53428;47.686;16.584;2023-03-14T03:58:27;12.60;61.19
66576;SHT31;53428;47.686;16.584;2023-03-14T04:03:27;12.12;62.57
66576;SHT31;53428;47.686;16.584;2023-03-14T04:08:27;11.70;63.55
66576;SHT31;53428;47.686;16.584;2023-03-14T04:13:27;11.40;64.64
66576;SHT31;53428;47.686;16.584;2023-03-14T04:18:27;11.31;65.02
66576;SHT31;53428;47.686;16.584;2023-03-14T04:23:28;11.46;63.99
66576;SHT31;53428;47.686;16.584;2023-03-14T04:28:28;11.03;65.92
66576;SHT31;53428;47.686;16.584;2023-03-14T04:33:27;10.85;66.78
66576;SHT31;53428;47.686;16.584;2023-03-14T04:38:26;10.40;68.27
66576;SHT31;53428;47.686;16.584;2023-03-14T04:43:26;10.38;68.31
66576;SHT31;53428;47.686;16.584;2023-03-14T04:48:26;10.45;67.94
66576;SHT31;53428;47.686;16.584;2023-03-14T04:53:25;11.37;65.99
66576;SHT31;53428;47.686;16.584;2023-03-14T04:58:25;11.81;64.56
66576;SHT31;53428;47.686;16.584;2023-03-14T05:03:24;12.59;63.00
66576;SHT31;53428;47.686;16.584;2023-03-14T05:08:23;12.37;63.35
66576;SHT31;53428;47.686;16.584;2023-03-14T05:13:23;12.18;64.32
66576;SHT31;53428;47.686;16.584;2023-03-14T05:18:22;12.06;64.83
66576;SHT31;53428;47.686;16.584;2023-03-14T05:23:22;12.98;64.36
66576;SHT31;53428;47.686;16.584;2023-03-14T05:28:21;13.26;64.22
66576;SHT31;53428;47.686;16.584;2023-03-14T05:33:20;13.52;65.15
66576;SHT31;53428;47.686;16.584;2023-03-14T05:38:20;13.67;65.94
66576;SHT31;53428;47.686;16.584;2023-03-14T05:43:21;13.86;66.02
66576;SHT31;53428;47.686;16.584;2023-03-14T05:48:21;13.94;66.23
66576;SHT31;53428;47.686;16.584;2023-03-14T05:53:21;13.87;66.63
66576;SHT31;53428;47.686;16.584;2023-03-14T05:58:20;13.83;67.00
66576;SHT31;53428;47.686;16.584;2023-03-14T06:03:19;13.76;67.50
66576;SHT31;53428;47.686;16.584;2023-03-14T06:08:18;13.65;68.16
66576;SHT31;53428;47.686;16.584;2023-03-14T06:13:18;13.45;69.09
66576;SHT31;53428;47.686;16.584;2023-03-14T06:18:17;13.35;69.71
66576;SHT31;53428;47.686;16.584;2023-03-14T06:23:17;13.35;70.28
66576;SHT31;53428;47.686;16.584;2023-03-14T06:28:16;13.29;70.95
66576;SHT31;53428;47.686;16.584;2023-03-14T06:33:15;13.14;72.11
66576;SHT31;53428;47.686;16.584;2023-03-14T06:38:15;13.10;72.57
66576;SHT31;53428;47.686;16.584;2023-03-14T06:43:14;13.08;72.91
66576;SHT31;53428;47.686;16.584;2023-03-14T06:48:13;13.15;73.11
66576;SHT31;53428;47.686;16.584;2023-03-14T06:53:12;13.16;73.36
66576;SHT31;53428;47.686;16.584;2023-03-14T06:58:12;13.10;73.61
66576;SHT31;53428;47.686;16.584;2023-03-14T07:03:13;13.08;73.88
66576;SHT31;53428;47.686;16.584;2023-03-14T07:08:12;13.10;73.91
66576;SHT31;53428;47.686;16.584;2023-03-14T07:13:11;13.14;73.80
66576;SHT31;53428;47.686;16.584;2023-03-14T07:18:11;13.15;73.93
66576;SHT31;53428;47.686;16.584;2023-03-14T07:23:10;13.26;73.72
66576;SHT31;53428;47.686;16.584;2023-03-14T07:28:09;13.39;73.44
66576;SHT31;53428;47.686;16.584;2023-03-14T07:33:09;13.55;72.93
66576;SHT31;53428;47.686;16.584;2023-03-14T07:38:08;13.69;72.54
66576;SHT31;53428;47.686;16.584;2023-03-14T07:43:07;13.59;72.71
66576;SHT31;53428;47.686;16.584;2023-03-14T07:48:07;13.60;72.78
66576;SHT31;53428;47.686;16.584;2023-03-14T07:53:06;13.76;72.31
66576;SHT31;53428;47.686;16.584;2023-03-14T07:58:05;13.84;72.01
66576;SHT31;53428;47.686;16.584;2023-03-14T08:03:05;14.01;71.49
66576;SHT31;53428;47.686;16.584;2023-03-14T08:08:05;13.98;71.52
66576;SHT31;53428;47.686;16.584;2023-03-14T08:13:04;14.10;71.17
66576;SHT31;53428;47.686;16.584;2023-03-14T08:18:05;14.15;71.06
66576;SHT31;53428;47.686;16.584;2023-03-14T08:23:04;14.42;70.42
66576;SHT31;53428;47.686;16.584;2023-03-14T08:28:04;14.56;69.74
66576;SHT31;53428;47.686;16.584;2023-03-14T08:33:03;14.93;68.98
66576;SHT31;53428;47.686;16.584;2023-03-14T08:38:02;15.14;68.39
66576;SHT31;53428;47.686;16.584;2023-03-14T08:43:02;15.23;68.09
66576;SHT31;53428;47.686;16.584;2023-03-14T08:48:02;15.37;67.59
66576;SHT31;53428;47.686;16.584;2023-03-14T08:53:02;15.14;67.84
66576;SHT31;53428;47.686;16.584;2023-03-14T08:58:04;15.38;67.43
66576;SHT31;53428;47.686;16.584;2023-03-14T09:03:04;15.79;66.52
66576;SHT31;53428;47.686;16.584;2023-03-14T09:08:03;15.89;66.30
66576;SHT31;53428;47.686;16.584;2023-03-14T09:13:02;16.17;65.37
66576;SHT31;53428;47.686;16.584;2023-03-14T09:18:02;16.13;65.39
66576;SHT31;53428;47.686;16.584;2023-03-14T09:23:01;16.06;65.43
66576;SHT31;53428;47.686;16.584;2023-03-14T09:28:01;16.36;64.79
66576;SHT31;53428;47.686;16.584;2023-03-14T09:33:00;16.47;64.37
66576;SHT31;53428;47.686;16.584;2023-03-14T09:37:59;16.82;63.85
66576;SHT31;53428;47.686;16.584;2023-03-14T09:42:59;17.27;62.87
66576;SHT31;53428;47.686;16.584;2023-03-14T09:47:58;17.15;62.75
66576;SHT31;53428;47.686;16.584;2023-03-14T09:53:03;17.91;60.92
66576;SHT31;53428;47.686;16.584;2023-03-14T09:58:10;17.60;61.58
66576;SHT31;53428;47.686;16.584;2023-03-14T10:08:13;17.75;60.24
66576;SHT31;53428;47.686;16.584;2023-03-14T10:13:17;17.99;60.00
66576;SHT31;53428;47.686;16.584;2023-03-14T10:18:16;18.06;59.55
66576;SHT31;53428;47.686;16.584;2023-03-14T10:28:26;17.81;60.25
66576;SHT31;53428;47.686;16.584;2023-03-14T10:33:29;17.95;59.66
66576;SHT31;53428;47.686;16.584;2023-03-14T10:38:32;18.04;59.51
66576;SHT31;53428;47.686;16.584;2023-03-14T10:43:33;18.25;58.92
66576;SHT31;53428;47.686;16.584;2023-03-14T10:48:34;18.04;59.05
66576;SHT31;53428;47.686;16.584;2023-03-14T10:53:44;18.29;58.25
66576;SHT31;53428;47.686;16.584;2023-03-14T10:58:49;18.15;58.28
66576;SHT31;53428;47.686;16.584;2023-03-14T11:03:57;17.94;58.23
66576;SHT31;53428;47.686;16.584;2023-03-14T11:09:02;18.05;58.12
66576;SHT31;53428;47.686;16.584;2023-03-14T11:35:34;17.64;58.29
66576;SHT31;53428;47.686;16.584;2023-03-14T11:40:37;17.69;58.63
66576;SHT31;53428;47.686;16.584;2023-03-14T11:45:39;17.60;58.47
66576;SHT31;53428;47.686;16.584;2023-03-14T11:50:42;17.61;58.03
66576;SHT31;53428;47.686;16.584;2023-03-14T11:55:43;17.39;57.55
66576;SHT31;53428;47.686;16.584;2023-03-14T12:00:44;17.26;57.47
66576;SHT31;53428;47.686;16.584;2023-03-14T12:06:00;17.12;57.65
66576;SHT31;53428;47.686;16.584;2023-03-14T12:11:02;15.72;65.86
66576;SHT31;53428;47.686;16.584;2023-03-14T12:16:20;14.51;70.48
66576;SHT31;53428;47.686;16.584;2023-03-14T12:21:42;14.04;72.64
66576;SHT31;53428;47.686;16.584;2023-03-14T12:26:53;13.43;74.42
66576;SHT31;53428;47.686;16.584;2023-03-14T12:32:45;13.00;75.67
66576;SHT31;53428;47.686;16.584;2023-03-14T12:37:41;12.68;75.49
66576;SHT31;53428;47.686;16.584;2023-03-14T12:42:56;12.44;75.98
66576;SHT31;53428;47.686;16.584;2023-03-14T12:48:22;12.52;75.03
66576;SHT31;53428;47.686;16.584;2023-03-14T12:53:44;12.35;74.61
66576;SHT31;53428;47.686;16.584;2023-03-14T13:04:33;12.49;74.88
66576;SHT31;53428;47.686;16.584;2023-03-14T13:14:32;12.37;74.19
66576;SHT31;53428;47.686;16.584;2023-03-14T13:19:33;12.70;73.39
66576;SHT31;53428;47.686;16.584;2023-03-14T13:24:34;12.65;72.43
66576;SHT31;53428;47.686;16.584;2023-03-14T13:29:35;12.77;71.97
66576;SHT31;53428;47.686;16.584;2023-03-14T13:34:35;12.97;71.26
66576;SHT31;53428;47.686;16.584;2023-03-14T13:39:39;13.14;70.64
66576;SHT31;53428;47.686;16.584;2023-03-14T13:44:43;13.08;70.92
66576;SHT31;53428;47.686;16.584;2023-03-14T13:49:44;12.83;71.87
66576;SHT31;53428;47.686;16.584;2023-03-14T13:54:43;12.92;71.76
66576;SHT31;53428;47.686;16.584;2023-03-14T13:59:43;13.15;71.25
66576;SHT31;53428;47.686;16.584;2023-03-14T14:04:42;13.14;70.76
66576;SHT31;53428;47.686;16.584;2023-03-14T14:09:46;13.08;70.46
66576;SHT31;53428;47.686;16.584;2023-03-14T14:19:49;12.77;66.46
66576;SHT31;53428;47.686;16.584;2023-03-14T14:24:49;12.77;66.41
66576;SHT31;53428;47.686;16.584;2023-03-14T14:30:30;12.73;66.46
66576;SHT31;53428;47.686;16.584;2023-03-14T14:35:34;12.53;67.14
66576;SHT31;53428;47.686;16.584;2023-03-14T14:40:34;12.57;67.31
66576;SHT31;53428;47.686;16.584;2023-03-14T14:45:34;12.68;66.48
66576;SHT31;53428;47.686;16.584;2023-03-14T14:50:37;12.84;64.72
66576;SHT31;53428;47.686;16.584;2023-03-14T14:55:40;12.94;63.85
66576;SHT31;53428;47.686;16.584;2023-03-14T15:00:41;12.91;63.49
66576;SHT31;53428;47.686;16.584;2023-03-14T15:05:40;12.97;63.67
66576;SHT31;53428;47.686;16.584;2023-03-14T15:10:40;12.81;64.33
66576;SHT31;53428;47.686;16.584;2023-03-14T15:15:41;12.64;65.76
66576;SHT31;53428;47.686;16.584;2023-03-14T15:20:42;12.50;66.25
66576;SHT31;53428;47.686;16.584;2023-03-14T15:25:41;12.21;67.32
66576;SHT31;53428;47.686;16.584;2023-03-14T15:30:43;12.08;68.42
66576;SHT31;53428;47.686;16.584;2023-03-14T15:35:42;11.96;69.07
66576;SHT31;53428;47.686;16.584;2023-03-14T15:40:42;11.87;69.74
66576;SHT31;53428;47.686;16.584;2023-03-14T15:45:44;11.89;70.17
66576;SHT31;53428;47.686;16.584;2023-03-14T15:50:44;11.79;70.50
66576;SHT31;53428;47.686;16.584;2023-03-14T15:55:43;11.81;70.49
66576;SHT31;53428;47.686;16.584;2023-03-14T16:00:42;11.60;71.18
66576;SHT31;53428;47.686;16.584;2023-03-14T16:05:42;11.60;71.41
66576;SHT31;53428;47.686;16.584;2023-03-14T16:10:41;11.63;71.40
66576;SHT31;53428;47.686;16.584;2023-03-14T16:15:52;11.47;72.12
66576;SHT31;53428;47.686;16.584;2023-03-14T16:20:56;11.53;72.83
66576;SHT31;53428;47.686;16.584;2023-03-14T16:25:57;11.46;74.31
66576;SHT31;53428;47.686;16.584;2023-03-14T16:31:04;11.30;75.15
66576;SHT31;53428;47.686;16.584;2023-03-14T16:36:06;11.29;74.71
66576;SHT31;53428;47.686;16.584;2023-03-14T16:41:19;11.26;74.52
66576;SHT31;53428;47.686;16.584;2023-03-14T16:46:19;11.40;74.25
66576;SHT31;53428;47.686;16.584;2023-03-14T16:51:20;11.37;74.26
66576;SHT31;53428;47.686;16.584;2023-03-14T16:56:19;11.34;74.71
66576;SHT31;53428;47.686;16.584;2023-03-14T17:01:19;11.27;74.88
66576;SHT31;53428;47.686;16.584;2023-03-14T17:06:21;11.18;74.94
66576;SHT31;53428;47.686;16.584;2023-03-14T17:11:24;11.13;75.19
66576;SHT31;53428;47.686;16.584;2023-03-14T17:16:24;11.10;75.49
66576;SHT31;53428;47.686;16.584;2023-03-14T17:21:25;11.12;75.50
66576;SHT31;53428;47.686;16.584;2023-03-14T17:26:25;10.98;76.07
66576;SHT31;53428;47.686;16.584;2023-03-14T17:31:24;10.92;76.01
66576;SHT31;53428;47.686;16.584;2023-03-14T17:42:37;10.92;76.08
66576;SHT31;53428;47.686;16.584;2023-03-14T17:47:37;10.82;76.52
66576;SHT31;53428;47.686;16.584;2023-03-14T17:52:37;10.83;76.72
66576;SHT31;53428;47.686;16.584;2023-03-14T17:57:37;10.79;77.36
66576;SHT31;53428;47.686;16.584;2023-03-14T18:02:38;10.72;77.91
66576;SHT31;53428;47.686;16.584;2023-03-14T18:07:41;10.69;78.53
66576;SHT31;53428;47.686;16.584;2023-03-14T18:12:40;10.58;78.92
66576;SHT31;53428;47.686;16.584;2023-03-14T18:17:41;10.62;79.96
66576;SHT31;53428;47.686;16.584;2023-03-14T18:22:40;10.44;81.15
66576;SHT31;53428;47.686;16.584;2023-03-14T18:27:40;10.25;82.36
66576;SHT31;53428;47.686;16.584;2023-03-14T18:32:40;10.07;83.72
66576;SHT31;53428;47.686;16.584;2023-03-14T18:37:40;10.07;85.31
66576;SHT31;53428;47.686;16.584;2023-03-14T18:42:40;9.95;85.35
66576;SHT31;53428;47.686;16.584;2023-03-14T18:47:40;9.87;86.08
66576;SHT31;53428;47.686;16.584;2023-03-14T18:52:43;9.96;85.02
66576;SHT31;53428;47.686;16.584;2023-03-14T18:57:43;10.04;84.14
66576;SHT31;53428;47.686;16.584;2023-03-14T19:02:43;9.99;84.33
66576;SHT31;53428;47.686;16.584;2023-03-14T19:07:43;10.03;84.07
66576;SHT31;53428;47.686;16.584;2023-03-14T19:12:43;9.90;84.67
66576;SHT31;53428;47.686;16.584;2023-03-14T19:17:42;9.82;85.87
66576;SHT31;53428;47.686;16.584;2023-03-14T19:22:43;9.81;87.35
66576;SHT31;53428;47.686;16.584;2023-03-14T19:27:44;9.81;88.41
66576;SHT31;53428;47.686;16.584;2023-03-14T19:32:43;9.76;87.90
66576;SHT31;53428;47.686;16.584;2023-03-14T19:37:43;9.85;85.09
66576;SHT31;53428;47.686;16.584;2023-03-14T19:42:46;9.71;86.32
66576;SHT31;53428;47.686;16.584;2023-03-14T19:47:46;10.30;79.13
66576;SHT31;53428;47.686;16.584;2023-03-14T19:52:48;10.48;78.41
66576;SHT31;53428;47.686;16.584;2023-03-14T19:57:49;10.48;76.40
66576;SHT31;53428;47.686;16.584;2023-03-14T20:02:51;10.81;70.86
66576;SHT31;53428;47.686;16.584;2023-03-14T20:07:51;10.92;69.10
66576;SHT31;53428;47.686;16.584;2023-03-14T20:12:51;10.92;67.89
66576;SHT31;53428;47.686;16.584;2023-03-14T20:17:51;10.91;67.38
66576;SHT31;53428;47.686;16.584;2023-03-14T20:22:50;10.83;66.99
66576;SHT31;53428;47.686;16.584;2023-03-14T20:27:50;10.71;67.03
66576;SHT31;53428;47.686;16.584;2023-03-14T20:32:50;10.54;67.27
66576;SHT31;53428;47.686;16.584;2023-03-14T20:37:53;10.41;67.21
66576;SHT31;53428;47.686;16.584;2023-03-14T20:42:56;10.36;67.02
66576;SHT31;53428;47.686;16.584;2023-03-14T20:47:55;10.29;65.70
66576;SHT31;53428;47.686;16.584;2023-03-14T20:52:56;10.36;64.49
66576;SHT31;53428;47.686;16.584;2023-03-14T20:57:55;10.27;64.18
66576;SHT31;53428;47.686;16.584;2023-03-14T21:02:55;10.29;63.29
66576;SHT31;53428;47.686;16.584;2023-03-14T21:07:55;10.33;62.49
66576;SHT31;53428;47.686;16.584;2023-03-14T21:12:56;10.29;62.40
66576;SHT31;53428;47.686;16.584;2023-03-14T21:17:56;10.30;61.64
66576;SHT31;53428;47.686;16.584;2023-03-14T21:22:55;10.37;60.74
66576;SHT31;53428;47.686;16.584;2023-03-14T21:27:56;10.33;60.69
66576;SHT31;53428;47.686;16.584;2023-03-14T21:32:56;10.24;60.00
66576;SHT31;53428;47.686;16.584;2023-03-14T21:37:55;10.44;58.95
66576;SHT31;53428;47.686;16.584;2023-03-14T21:42:55;10.34;58.68
66576;SHT31;53428;47.686;16.584;2023-03-14T21:47:56;10.23;59.04
66576;SHT31;53428;47.686;16.584;2023-03-14T21:52:56;10.27;58.51
66576;SHT31;53428;47.686;16.584;2023-03-14T21:57:57;10.21;58.45
66576;SHT31;53428;47.686;16.584;2023-03-14T22:02:57;10.12;59.29
66576;SHT31;53428;47.686;16.584;2023-03-14T22:07:59;9.83;60.68
66576;SHT31;53428;47.686;16.584;2023-03-14T22:12:58;9.62;62.00
66576;SHT31;53428;47.686;16.584;2023-03-14T22:17:58;9.47;61.09
66576;SHT31;53428;47.686;16.584;2023-03-14T22:22:57;9.35;59.77
66576;SHT31;53428;47.686;16.584;2023-03-14T22:27:56;9.44;58.51
66576;SHT31;53428;47.686;16.584;2023-03-14T22:32:56;9.47;57.07
66576;SHT31;53428;47.686;16.584;2023-03-14T22:37:55;9.34;57.65
66576;SHT31;53428;47.686;16.584;2023-03-14T22:42:55;9.41;57.02
66576;SHT31;53428;47.686;16.584;2023-03-14T22:47:55;9.28;57.40
66576;SHT31;53428;47.686;16.584;2023-03-14T22:52:56;9.34;56.83
66576;SHT31;53428;47.686;16.584;2023-03-14T22:57:57;9.32;56.83
66576;SHT31;53428;47.686;16.584;2023-03-14T23:02:57;9.32;56.74
66576;SHT31;53428;47.686;16.584;2023-03-14T23:07:56;9.39;56.07
66576;SHT31;53428;47.686;16.584;2023-03-14T23:12:55;9.45;55.64
66576;SHT31;53428;47.686;16.584;2023-03-14T23:17:55;9.45;55.39
66576;SHT31;53428;47.686;16.584;2023-03-14T23:22:54;9.35;55.58
66576;SHT31;53428;47.686;16.584;2023-03-14T23:27:54;9.31;55.99
66576;SHT31;53428;47.686;16.584;2023-03-14T23:32:53;9.00;57.62
66576;SHT31;53428;47.686;16.584;2023-03-14T23:37:52;9.01;57.67
66576;SHT31;53428;47.686;16.584;2023-03-14T23:42:51;8.97;57.55
66576;SHT31;53428;47.686;16.584;2023-03-14T23:47:50;8.94;57.56
66576;SHT31;53428;47.686;16.584;2023-03-14T23:52:50;8.91;57.57
66576;SHT31;53428;47.686;16.584;2023-03-14T23:57:49;8.89;57.85
